createdAt,value
2022-11-20T00:00:08.326Z,96444.09
2022-11-20T00:02:41.521Z,96433.97
2022-11-20T00:05:13.093Z,96438.44
2022-11-20T00:07:43.543Z,96425.09
2022-11-20T00:10:14.235Z,96436.00
2022-11-20T00:12:44.696Z,96429.00
2022-11-20T00:15:15.302Z,96436.50
2022-11-20T00:17:48.399Z,96435.84
2022-11-20T00:20:19.228Z,96427.75
2022-11-20T00:22:49.764Z,96412.94
2022-11-20T00:25:20.810Z,96421.94
2022-11-20T00:27:51.313Z,96416.53
2022-11-20T00:30:22.557Z,96416.75
2022-11-20T00:32:55.739Z,96424.72
2022-11-20T00:35:26.560Z,96417.94
2022-11-20T00:37:57.051Z,96406.63
2022-11-20T00:40:27.598Z,96423.44
2022-11-20T00:42:58.102Z,96408.56
2022-11-20T00:45:28.654Z,96414.06
2022-11-20T00:48:01.774Z,96400.59
2022-11-20T00:50:32.368Z,96403.19
2022-11-20T00:53:02.821Z,96401.25
2022-11-20T00:55:33.377Z,96409.00
2022-11-20T00:58:04.771Z,96412.19
2022-11-20T01:00:35.517Z,96420.75
2022-11-20T01:03:08.599Z,96423.72
2022-11-20T01:05:39.548Z,96426.91
2022-11-20T01:08:10.010Z,96425.78
2022-11-20T01:10:41.295Z,96431.84
2022-11-20T01:13:25.738Z,96416.91
2022-11-20T01:15:56.602Z,96405.31
2022-11-20T01:18:29.682Z,96402.16
2022-11-20T01:21:03.756Z,96400.88
2022-11-20T01:23:38.844Z,96383.72
2022-11-20T01:26:13.034Z,96366.78
2022-11-20T01:28:44.276Z,96359.56
2022-11-20T01:31:17.153Z,96330.00
2022-11-20T01:33:52.593Z,96344.22
2022-11-20T01:36:25.112Z,96332.47
2022-11-20T01:38:56.435Z,96333.25
2022-11-20T01:41:40.349Z,96335.72
2022-11-20T01:44:11.228Z,96340.88
2022-11-20T01:46:46.649Z,96350.56
2022-11-20T01:49:24.265Z,96343.56
2022-11-20T01:51:58.096Z,96358.84
2022-11-20T01:54:33.783Z,96358.28
2022-11-20T01:57:05.920Z,96351.50
2022-11-20T01:59:37.570Z,96366.22
2022-11-20T02:02:08.292Z,96369.13
2022-11-20T02:04:41.759Z,96368.50
2022-11-20T02:07:12.865Z,96367.09
2022-11-20T02:09:43.353Z,96371.44
2022-11-20T02:12:34.491Z,96363.63
2022-11-20T02:15:26.190Z,96365.47
2022-11-20T02:17:59.746Z,96381.59
2022-11-20T02:20:33.279Z,96385.91
2022-11-20T02:23:08.821Z,96393.38
2022-11-20T02:25:44.031Z,96389.28
2022-11-20T02:28:14.745Z,96392.19
2022-11-20T02:30:45.166Z,96379.41
2022-11-20T02:33:16.402Z,96374.75
2022-11-20T02:35:49.656Z,96371.69
2022-11-20T02:38:20.729Z,96367.59
2022-11-20T02:40:55.706Z,96343.78
2022-11-20T02:43:27.072Z,96346.38
2022-11-20T02:45:57.840Z,96348.22
2022-11-20T02:48:33.560Z,96340.19
2022-11-20T02:51:04.809Z,96341.59
2022-11-20T02:53:35.434Z,96327.09
2022-11-20T02:56:09.585Z,96332.25
2022-11-20T02:58:40.114Z,96331.19
2022-11-20T03:01:10.820Z,96335.75
2022-11-20T03:03:41.453Z,96336.56
2022-11-20T03:06:12.220Z,96325.38
2022-11-20T03:08:42.860Z,96321.63
2022-11-20T03:11:16.060Z,96322.00
2022-11-20T03:13:47.005Z,96330.19
2022-11-20T03:16:20.147Z,96307.44
2022-11-20T03:18:50.896Z,96317.47
2022-11-20T03:21:21.488Z,96324.25
2022-11-20T03:23:51.983Z,96327.53
2022-11-20T03:26:28.311Z,96332.47
2022-11-20T03:29:00.837Z,96325.22
2022-11-20T03:31:33.339Z,96326.59
2022-11-20T03:34:04.499Z,96315.63
2022-11-20T03:36:36.146Z,96312.94
2022-11-20T03:39:06.924Z,96311.88
2022-11-20T03:41:44.797Z,96315.41
2022-11-20T03:44:16.266Z,96319.94
2022-11-20T03:46:46.887Z,96324.53
2022-11-20T03:49:17.415Z,96334.44
2022-11-20T03:51:48.619Z,96329.78
2022-11-20T03:54:19.218Z,96342.38
2022-11-20T03:56:52.368Z,96345.28
2022-11-20T03:59:23.203Z,96346.34
2022-11-20T04:01:53.994Z,96349.03
2022-11-20T04:04:24.580Z,96347.03
2022-11-20T04:06:55.126Z,96358.59
2022-11-20T04:09:25.704Z,96358.59
2022-11-20T04:11:58.857Z,96356.13
2022-11-20T04:14:29.602Z,96364.66
2022-11-20T04:17:00.185Z,96358.06
2022-11-20T04:19:30.699Z,96353.19
2022-11-20T04:22:01.198Z,96361.91
2022-11-20T04:24:31.754Z,96349.19
2022-11-20T04:27:04.906Z,96346.13
2022-11-20T04:29:35.485Z,96344.94
2022-11-20T04:32:06.182Z,96352.88
2022-11-20T04:34:36.801Z,96357.06
2022-11-20T04:37:07.459Z,96348.06
2022-11-20T04:39:38.117Z,96350.00
2022-11-20T04:42:25.871Z,96341.63
2022-11-20T04:44:56.319Z,96332.94
2022-11-20T04:47:27.643Z,96325.97
2022-11-20T04:49:58.264Z,96324.69
2022-11-20T04:52:28.999Z,96306.84
2022-11-20T04:54:59.614Z,96309.66
2022-11-20T04:57:32.717Z,96312.03
2022-11-20T05:00:03.206Z,96316.47
2022-11-20T05:02:35.360Z,96317.41
2022-11-20T05:05:05.885Z,96317.09
2022-11-20T05:07:36.363Z,96315.34
2022-11-20T05:10:07.599Z,96318.19
2022-11-20T05:12:40.845Z,96307.56
2022-11-20T05:15:12.327Z,96306.28
2022-11-20T05:17:42.997Z,96306.06
2022-11-20T05:20:15.236Z,96313.88
2022-11-20T05:22:46.203Z,96316.34
2022-11-20T05:25:16.769Z,96323.13
2022-11-20T05:27:49.926Z,96319.16
2022-11-20T05:30:20.559Z,96316.22
2022-11-20T05:32:51.127Z,96315.19
2022-11-20T05:35:21.659Z,96314.13
2022-11-20T05:37:52.243Z,96325.69
2022-11-20T05:40:22.958Z,96311.09
2022-11-20T05:42:56.213Z,96318.22
2022-11-20T05:45:26.822Z,96329.78
2022-11-20T05:47:57.647Z,96331.63
2022-11-20T05:50:28.161Z,96335.16
2022-11-20T05:52:58.714Z,96337.25
2022-11-20T05:55:29.265Z,96342.38
2022-11-20T05:58:02.411Z,96345.06
2022-11-20T06:00:32.902Z,96343.78
2022-11-20T06:03:03.494Z,96366.09
2022-11-20T06:05:34.103Z,96361.09
2022-11-20T06:08:05.340Z,96363.09
2022-11-20T06:10:35.781Z,96369.63
2022-11-20T06:13:08.905Z,96369.53
2022-11-20T06:15:39.833Z,96362.97
2022-11-20T06:18:10.440Z,96368.81
2022-11-20T06:20:42.185Z,96364.94
2022-11-20T06:23:12.920Z,96367.50
2022-11-20T06:25:43.987Z,96366.81
2022-11-20T06:28:17.223Z,96369.16
2022-11-20T06:30:49.835Z,96371.72
2022-11-20T06:33:20.357Z,96376.38
2022-11-20T06:35:53.315Z,96379.97
2022-11-20T06:38:27.736Z,96372.84
2022-11-20T06:40:58.734Z,96381.03
2022-11-20T06:43:33.501Z,96384.66
2022-11-20T06:46:04.070Z,96387.22
2022-11-20T06:48:35.003Z,96386.84
2022-11-20T06:51:07.708Z,96401.66
2022-11-20T06:53:38.585Z,96409.00
2022-11-20T06:56:10.562Z,96419.06
2022-11-20T06:58:44.004Z,96421.44
2022-11-20T07:01:16.422Z,96419.75
2022-11-20T07:03:51.380Z,96432.34
2022-11-20T07:06:24.554Z,96436.22
2022-11-20T07:08:55.808Z,96439.28
2022-11-20T07:11:26.582Z,96436.31
2022-11-20T07:14:01.124Z,96442.34
2022-11-20T07:16:31.672Z,96445.59
2022-11-20T07:19:02.460Z,96462.28
2022-11-20T07:21:32.951Z,96446.84
2022-11-20T07:24:03.548Z,96443.28
2022-11-20T07:26:33.988Z,96443.69
2022-11-20T07:29:07.324Z,96437.66
2022-11-20T07:31:37.923Z,96444.88
2022-11-20T07:34:08.533Z,96438.00
2022-11-20T07:36:39.140Z,96433.91
2022-11-20T07:39:09.820Z,96433.91
2022-11-20T07:41:40.382Z,96429.09
2022-11-20T07:44:13.585Z,96433.72
2022-11-20T07:46:44.025Z,96425.72
2022-11-20T07:49:14.792Z,96428.25
2022-11-20T07:51:46.997Z,96442.91
2022-11-20T07:54:21.007Z,96451.56
2022-11-20T07:56:51.894Z,96466.19
2022-11-20T07:59:25.100Z,96461.88
2022-11-20T08:01:55.741Z,96468.81
2022-11-20T08:04:26.235Z,96478.94
2022-11-20T08:06:57.562Z,96505.31
2022-11-20T08:09:28.272Z,96496.97
2022-11-20T08:12:11.097Z,96495.69
2022-11-20T08:14:44.197Z,96491.84
2022-11-20T08:17:14.746Z,96497.13
2022-11-20T08:19:45.239Z,96493.78
2022-11-20T08:22:15.673Z,96498.06
2022-11-20T08:24:46.199Z,96505.03
2022-11-20T08:27:16.693Z,96497.97
2022-11-20T08:29:49.849Z,96496.94
2022-11-20T08:32:20.432Z,96494.84
2022-11-20T08:34:51.001Z,96500.00
2022-11-20T08:37:21.549Z,96497.66
2022-11-20T08:39:52.020Z,96489.97
2022-11-20T08:42:22.765Z,96482.69
2022-11-20T08:44:55.915Z,96485.84
2022-11-20T08:47:26.480Z,96473.91
2022-11-20T08:49:56.958Z,96479.75
2022-11-20T08:52:27.560Z,96483.94
2022-11-20T08:54:58.001Z,96477.34
2022-11-20T08:57:28.521Z,96474.63
2022-11-20T09:00:06.310Z,96474.97
2022-11-20T09:02:37.308Z,96475.84
2022-11-20T09:05:08.779Z,96475.16
2022-11-20T09:07:39.405Z,96473.78
2022-11-20T09:13:02.780Z,96467.84
2022-11-20T09:15:36.261Z,96471.06
2022-11-20T09:18:07.784Z,96467.50
2022-11-20T09:20:38.333Z,96466.84
2022-11-20T09:23:08.850Z,96448.78
2022-11-20T09:25:39.348Z,96451.41
2022-11-20T09:28:09.906Z,96452.19
2022-11-20T09:30:43.023Z,96455.00
2022-11-20T09:33:13.768Z,96455.47
2022-11-20T09:35:44.736Z,96439.78
2022-11-20T09:38:15.767Z,96442.84
2022-11-20T09:40:54.401Z,96441.38
2022-11-20T09:43:37.114Z,96447.47
2022-11-20T09:46:24.952Z,96440.63
2022-11-20T09:49:13.754Z,96435.78
2022-11-20T09:51:55.809Z,96428.41
2022-11-20T09:54:30.563Z,96422.50
2022-11-20T09:57:04.365Z,96424.75
2022-11-20T09:59:42.233Z,96413.06
2022-11-20T10:02:32.046Z,96398.88
2022-11-20T10:05:08.164Z,96410.81
2022-11-20T10:07:47.172Z,96397.66
2022-11-20T10:10:26.391Z,96389.41
2022-11-20T10:13:09.412Z,96391.66
2022-11-20T10:15:50.405Z,96391.63
2022-11-20T10:18:35.970Z,96385.00
2022-11-20T10:21:17.256Z,96377.34
2022-11-20T10:24:11.537Z,96383.69
2022-11-20T10:26:52.376Z,96377.31
2022-11-20T10:29:28.395Z,96373.28
2022-11-20T10:32:03.971Z,96367.19
2022-11-20T10:34:41.513Z,96369.03
2022-11-20T10:37:19.078Z,96368.44
2022-11-20T10:39:58.700Z,96379.00
2022-11-20T10:42:36.646Z,96379.63
2022-11-20T10:45:35.493Z,96382.94
2022-11-20T10:48:17.800Z,96381.31
2022-11-20T10:51:26.385Z,96372.50
2022-11-20T10:54:09.804Z,96373.97
2022-11-20T10:56:49.893Z,96373.34
2022-11-20T10:59:45.660Z,96366.91
2022-11-20T11:02:24.027Z,96368.22
2022-11-20T11:04:55.616Z,96358.72
2022-11-20T11:07:34.708Z,96356.16
2022-11-20T11:10:05.508Z,96351.84
2022-11-20T11:12:36.050Z,96354.09
2022-11-20T11:15:07.099Z,96345.34
2022-11-20T11:17:38.467Z,96350.59
2022-11-20T11:20:20.921Z,96354.41
2022-11-20T11:22:56.342Z,96347.91
2022-11-20T11:25:30.406Z,96339.97
2022-11-20T11:28:03.556Z,96343.34
2022-11-20T11:30:45.916Z,96339.47
2022-11-20T11:33:23.783Z,96343.56
2022-11-20T11:35:58.368Z,96365.03
2022-11-20T11:38:40.002Z,96361.50
2022-11-20T11:41:14.711Z,96363.69
2022-11-20T11:44:08.516Z,96368.22
2022-11-20T11:46:40.818Z,96358.84
2022-11-20T11:49:21.862Z,96364.09
2022-11-20T11:52:03.467Z,96352.59
2022-11-20T11:54:42.559Z,96360.53
2022-11-20T11:57:18.373Z,96364.34
2022-11-20T12:00:01.937Z,96370.38
2022-11-20T12:02:42.009Z,96376.19
2022-11-20T12:05:23.138Z,96389.63
2022-11-20T12:07:59.485Z,96387.63
2022-11-20T12:10:45.721Z,96393.06
2022-11-20T12:13:30.224Z,96421.38
2022-11-20T12:16:01.139Z,96428.66
2022-11-20T12:18:33.813Z,96426.88
2022-11-20T12:21:17.151Z,96441.34
2022-11-20T12:24:02.925Z,96438.75
2022-11-20T12:26:44.878Z,96450.13
2022-11-20T12:29:28.239Z,96433.28
2022-11-20T12:32:22.868Z,96422.38
2022-11-20T12:35:11.130Z,96425.75
2022-11-20T12:37:53.499Z,96428.28
2022-11-20T12:40:36.847Z,96429.53
2022-11-20T12:43:38.679Z,96436.13
2022-11-20T12:46:22.724Z,96432.00
2022-11-20T12:49:24.510Z,96441.56
2022-11-20T12:52:27.734Z,96445.69
2022-11-20T12:55:28.199Z,96433.78
2022-11-20T12:58:05.667Z,96444.94
2022-11-20T13:00:45.752Z,96436.72
2022-11-20T13:03:52.154Z,96441.72
2022-11-20T13:06:22.991Z,96447.88
2022-11-20T13:08:57.718Z,96439.03
2022-11-20T13:11:36.514Z,96425.03
2022-11-20T13:14:17.769Z,96419.06
2022-11-20T13:17:00.907Z,96452.91
2022-11-20T13:19:36.087Z,96443.25
2022-11-20T13:22:06.567Z,96431.91
2022-11-20T13:24:37.158Z,96447.38
2022-11-20T13:27:25.389Z,96445.13
2022-11-20T13:30:18.472Z,96443.50
2022-11-20T13:33:01.180Z,96418.56
2022-11-20T13:35:34.803Z,96425.38
2022-11-20T13:38:11.237Z,96433.75
2022-11-20T13:40:54.559Z,96440.66
2022-11-20T13:43:37.834Z,96453.13
2022-11-20T13:46:10.831Z,96439.41
2022-11-20T13:48:47.616Z,96450.88
2022-11-20T13:51:33.267Z,96458.28
2022-11-20T13:54:40.056Z,96454.03
2022-11-20T13:57:27.588Z,96453.69
2022-11-20T14:00:02.631Z,96452.16
2022-11-20T14:02:41.598Z,96466.69
2022-11-20T14:05:24.209Z,96475.66
2022-11-20T14:07:56.671Z,96488.41
2022-11-20T14:10:32.128Z,96472.19
2022-11-20T14:13:13.911Z,96487.44
2022-11-20T14:15:45.205Z,96504.63
2022-11-20T14:18:18.240Z,96522.94
2022-11-20T14:20:51.571Z,96515.19
2022-11-20T14:23:30.299Z,96545.22
2022-11-20T14:26:01.532Z,96567.53
2022-11-20T14:28:33.790Z,96556.31
2022-11-20T14:31:04.522Z,96546.56
2022-11-20T14:33:37.316Z,96553.34
2022-11-20T14:36:20.609Z,96559.88
2022-11-20T14:38:51.536Z,96578.69
2022-11-20T14:41:24.381Z,96579.88
2022-11-20T14:44:00.627Z,96589.06
2022-11-20T14:46:34.136Z,96607.22
2022-11-20T14:49:07.112Z,96604.94
2022-11-20T14:51:42.949Z,96611.66
2022-11-20T14:54:14.885Z,96609.72
2022-11-20T14:56:45.704Z,96605.59
2022-11-20T14:59:28.256Z,96610.47
2022-11-20T15:02:01.061Z,96599.56
2022-11-20T15:04:31.797Z,96579.31
2022-11-20T15:07:04.963Z,96573.16
2022-11-20T15:09:35.682Z,96575.44
2022-11-20T15:12:07.662Z,96567.78
2022-11-20T15:14:40.780Z,96577.38
2022-11-20T15:17:15.728Z,96574.03
2022-11-20T15:19:46.390Z,96572.31
2022-11-20T15:22:20.271Z,96572.28
2022-11-20T15:24:50.962Z,96546.97
2022-11-20T15:27:22.016Z,96547.69
2022-11-20T15:29:52.905Z,96551.47
2022-11-20T15:32:23.654Z,96542.13
2022-11-20T15:34:54.268Z,96518.78
2022-11-20T15:37:30.080Z,96509.00
2022-11-20T15:40:01.019Z,96514.38
2022-11-20T15:42:31.458Z,96518.09
2022-11-20T15:45:09.784Z,96499.66
2022-11-20T15:47:40.558Z,96480.56
2022-11-20T15:50:18.100Z,96461.53
2022-11-20T15:52:51.948Z,96459.16
2022-11-20T15:55:22.740Z,96455.03
2022-11-20T15:57:56.243Z,96471.41
2022-11-20T16:00:27.199Z,96477.50
2022-11-20T16:02:57.764Z,96483.63
2022-11-20T16:05:31.651Z,96496.19
2022-11-20T16:08:09.998Z,96497.38
2022-11-20T16:10:43.119Z,96489.41
2022-11-20T16:13:30.844Z,96488.88
2022-11-20T16:16:06.207Z,96491.94
2022-11-20T16:18:37.241Z,96488.22
2022-11-20T16:21:08.063Z,96485.69
2022-11-20T16:23:41.199Z,96480.31
2022-11-20T16:26:15.544Z,96471.59
2022-11-20T16:28:46.150Z,96483.19
2022-11-20T16:31:18.603Z,96498.63
2022-11-20T16:33:53.948Z,96505.06
2022-11-20T16:36:24.867Z,96512.53
2022-11-20T16:39:00.618Z,96522.03
2022-11-20T16:41:32.526Z,96515.50
2022-11-20T16:44:04.977Z,96525.00
2022-11-20T16:46:36.505Z,96528.50
2022-11-20T16:49:09.448Z,96528.53
2022-11-20T16:51:40.521Z,96534.94
2022-11-20T16:54:18.063Z,96522.06
2022-11-20T16:56:52.145Z,96524.75
2022-11-20T16:59:22.677Z,96531.31
2022-11-20T17:01:53.394Z,96527.25
2022-11-20T17:04:24.141Z,96523.19
2022-11-20T17:06:55.066Z,96520.13
2022-11-20T17:09:28.283Z,96524.44
2022-11-20T17:11:58.978Z,96506.38
2022-11-20T17:14:29.703Z,96491.00
2022-11-20T17:17:00.560Z,96484.63
2022-11-20T17:19:31.220Z,96482.59
2022-11-20T17:22:02.119Z,96490.22
2022-11-20T17:24:35.424Z,96492.47
2022-11-20T17:27:06.706Z,96497.41
2022-11-20T17:29:41.932Z,96505.41
2022-11-20T17:32:12.762Z,96493.91
2022-11-20T17:34:44.299Z,96493.69
2022-11-20T17:37:15.365Z,96494.53
2022-11-20T17:39:49.363Z,96496.38
2022-11-20T17:42:37.086Z,96494.72
2022-11-20T17:45:08.620Z,96493.69
2022-11-20T17:47:39.705Z,96477.69
2022-11-20T17:50:11.764Z,96460.84
2022-11-20T17:52:42.641Z,96447.91
2022-11-20T17:55:16.063Z,96444.09
2022-11-20T17:57:58.444Z,96433.03
2022-11-20T18:00:30.884Z,96433.19
2022-11-20T18:03:01.432Z,96449.69
2022-11-20T18:05:32.235Z,96457.34
2022-11-20T18:08:02.713Z,96458.28
2022-11-20T18:10:36.151Z,96456.41
2022-11-20T18:13:06.838Z,96436.97
2022-11-20T18:15:37.631Z,96431.78
2022-11-20T18:18:08.368Z,96406.75
2022-11-20T18:20:40.098Z,96399.50
2022-11-20T18:23:10.825Z,96399.00
2022-11-20T18:25:44.817Z,96411.81
2022-11-20T18:28:15.287Z,96413.53
2022-11-20T18:30:46.208Z,96424.47
2022-11-20T18:33:17.436Z,96418.59
2022-11-20T18:35:48.179Z,96399.75
2022-11-20T18:38:18.873Z,96405.56
2022-11-20T18:40:52.090Z,96378.56
2022-11-20T18:43:35.015Z,96356.41
2022-11-20T18:46:06.666Z,96344.13
2022-11-20T18:48:38.851Z,96339.03
2022-11-20T18:51:12.199Z,96356.06
2022-11-20T18:53:47.117Z,96364.28
2022-11-20T18:56:21.417Z,96370.84
2022-11-20T18:58:52.075Z,96365.13
2022-11-20T19:01:22.739Z,96371.06
2022-11-20T19:03:53.643Z,96376.00
2022-11-20T19:06:24.286Z,96372.31
2022-11-20T19:08:55.453Z,96377.03
2022-11-20T19:11:28.657Z,96367.59
2022-11-20T19:13:59.181Z,96387.06
2022-11-20T19:16:29.813Z,96394.66
2022-11-20T19:19:03.571Z,96385.22
2022-11-20T19:21:34.406Z,96388.91
2022-11-20T19:24:07.031Z,96379.06
2022-11-20T19:26:41.349Z,96376.59
2022-11-20T19:29:15.629Z,96365.91
2022-11-20T19:31:46.733Z,96365.91
2022-11-20T19:34:18.264Z,96368.59
2022-11-20T19:36:48.743Z,96363.47
2022-11-20T19:39:19.905Z,96361.81
2022-11-20T19:41:53.498Z,96371.69
2022-11-20T19:44:23.994Z,96362.03
2022-11-20T19:46:57.269Z,96363.03
2022-11-20T19:49:29.022Z,96359.75
2022-11-20T19:51:59.805Z,96363.47
2022-11-20T19:54:30.567Z,96373.28
2022-11-20T19:57:03.851Z,96367.53
2022-11-20T19:59:34.301Z,96372.03
2022-11-20T20:02:05.293Z,96377.38
2022-11-20T20:04:35.893Z,96385.56
2022-11-20T20:07:06.835Z,96386.59
2022-11-20T20:09:37.459Z,96386.00
2022-11-20T20:12:11.244Z,96366.69
2022-11-20T20:14:41.776Z,96347.44
2022-11-20T20:17:12.334Z,96336.31
2022-11-20T20:19:43.244Z,96319.91
2022-11-20T20:22:13.733Z,96322.78
2022-11-20T20:24:44.408Z,96324.00
2022-11-20T20:27:17.770Z,96312.50
2022-11-20T20:29:48.316Z,96310.06
2022-11-20T20:32:18.904Z,96314.38
2022-11-20T20:34:49.541Z,96312.94
2022-11-20T20:37:20.111Z,96308.81
2022-11-20T20:39:50.895Z,96312.50
2022-11-20T20:42:24.082Z,96302.84
2022-11-20T20:45:06.843Z,96292.41
2022-11-20T20:47:38.632Z,96281.97
2022-11-20T20:50:11.818Z,96268.63
2022-11-20T20:52:42.671Z,96260.00
2022-11-20T20:55:13.921Z,96241.75
2022-11-20T20:57:47.398Z,96233.75
2022-11-20T21:00:19.250Z,96232.97
2022-11-20T21:02:49.769Z,96232.50
2022-11-20T21:05:20.430Z,96236.41
2022-11-20T21:08:03.245Z,96235.38
2022-11-20T21:10:34.929Z,96216.31
2022-11-20T21:13:08.198Z,96216.50
2022-11-20T21:15:41.867Z,96209.16
2022-11-20T21:18:12.286Z,96206.09
2022-11-20T21:20:55.113Z,96206.69
2022-11-20T21:23:25.693Z,96196.88
2022-11-20T21:25:56.415Z,96197.06
2022-11-20T21:28:29.513Z,96186.19
2022-11-20T21:31:07.396Z,96187.34
2022-11-20T21:33:42.082Z,96191.16
2022-11-20T21:36:14.523Z,96169.25
2022-11-20T21:38:45.107Z,96166.59
2022-11-20T21:41:17.362Z,96172.41
2022-11-20T21:44:15.983Z,96164.84
2022-11-20T21:46:42.663Z,96163.31
2022-11-20T21:49:14.801Z,96157.94
2022-11-20T21:51:45.774Z,96156.47
2022-11-20T21:54:17.731Z,96135.78
2022-11-20T21:56:48.331Z,96135.63
2022-11-20T21:59:22.357Z,96132.84
2022-11-20T22:01:53.337Z,96127.09
2022-11-20T22:04:24.757Z,96100.88
2022-11-20T22:06:55.413Z,96092.22
2022-11-20T22:09:26.301Z,96085.09
2022-11-20T22:11:57.111Z,96087.09
2022-11-20T22:14:28.536Z,96096.06
2022-11-20T22:16:59.202Z,96089.56
2022-11-20T22:19:29.819Z,96089.13
2022-11-20T22:22:00.344Z,96067.66
2022-11-20T22:24:30.958Z,96045.16
2022-11-20T22:27:01.512Z,96027.84
2022-11-20T22:29:35.041Z,96008.50
2022-11-20T22:32:05.629Z,96007.34
2022-11-20T22:34:36.355Z,95974.09
2022-11-20T22:37:06.882Z,95974.50
2022-11-20T22:39:37.355Z,95980.66
2022-11-20T22:42:08.052Z,95988.03
2022-11-20T22:44:41.294Z,95987.66
2022-11-20T22:47:11.875Z,95984.19
2022-11-20T22:49:42.356Z,95975.19
2022-11-20T22:52:12.860Z,95972.56
2022-11-20T22:54:43.460Z,95969.69
2022-11-20T22:57:13.975Z,95963.13
2022-11-20T22:59:47.164Z,95947.47
2022-11-20T23:02:17.664Z,95927.91
2022-11-20T23:04:48.037Z,95907.09
2022-11-20T23:07:18.604Z,95888.31
2022-11-20T23:09:49.149Z,95902.69
2022-11-20T23:12:19.646Z,95900.03
2022-11-20T23:14:52.675Z,95891.44
2022-11-20T23:17:23.169Z,95900.66
2022-11-20T23:19:53.733Z,95874.22
2022-11-20T23:22:24.164Z,95887.13
2022-11-20T23:24:54.737Z,95892.03
2022-11-20T23:27:28.340Z,95880.94
2022-11-20T23:30:01.652Z,95871.75
2022-11-20T23:32:34.541Z,95868.81
2022-11-20T23:35:05.034Z,95870.47
2022-11-20T23:37:35.402Z,95837.47
2022-11-20T23:40:06.156Z,95863.03
2022-11-20T23:42:37.166Z,95861.97
2022-11-20T23:45:11.540Z,95870.53
2022-11-20T23:47:41.988Z,95863.16
2022-11-20T23:50:12.690Z,95843.44
2022-11-20T23:52:43.199Z,95857.81
2022-11-20T23:55:13.672Z,95869.72
2022-11-20T23:57:44.113Z,95859.72
